Gould Hill, Vermont
Current Conditions -  °F | °C
As of 10:51 PM on Monday 22 Dec 2014 (Local Time) from KMPV Reporting Station
Overcast Overcast  
Wind Chill: 32°   Ceiling: 1400
Heat Index: 32°   Visibility: 10mi
Dew Point: 29°   Wind: 3mph
Humidity: 88%   Direction: 180°S
Pressure: 30.3"   Gusts: NA
Location:  44.2861°N, 72.6004°W
Report Text: KMPV 230351Z AUTO 18003KT 10SM OVC014 00/M02 A3030 RMK AO2 SNE11 SLP278 P0000 T00001017
Loading
Personal Weather Stations






























Interactive Weather Map New forecast layout! Learn more

10-Day Weather Forecast

Advertisements
Track Severe Weather on mobile